Crumpton, Maryland
Current Conditions -  °F | °C
As of 4:58 AM on Friday 28 Nov 2014 (Local Time) from KDOV Reporting Station
Clear Clear  
Wind Chill: 26°   Ceiling: Unl
Heat Index: 33°   Visibility: 10mi
Dew Point: 25°   Wind: 9mph
Humidity: 71%   Direction: 280°W
Pressure: 30.16"   Gusts: NA
Location:  39.24°N, 75.92°W
Report Text: KDOV 280958Z AUTO 28008KT 10SM CLR 01/M04 A3016 RMK AO2 SLP217 T00081039
Loading
Personal Weather Stations






























Interactive Weather Map New forecast layout! Learn more

10-Day Weather Forecast

Advertisements
Track Severe Weather on mobile